createdAt,value
2022-10-06T00:01:18.467Z,152.10
2022-10-06T00:03:47.257Z,152.17
2022-10-06T00:06:18.314Z,149.13
2022-10-06T00:08:48.144Z,151.20
2022-10-06T00:11:18.283Z,139.90
2022-10-06T00:13:46.801Z,144.50
2022-10-06T00:16:18.297Z,147.33
2022-10-06T00:18:46.473Z,139.10
2022-10-06T00:21:14.636Z,138.10
2022-10-06T00:23:42.761Z,135.07
2022-10-06T00:26:16.687Z,136.40
2022-10-06T00:28:48.360Z,141.43
2022-10-06T00:31:19.291Z,136.37
2022-10-06T00:33:48.278Z,134.30
2022-10-06T00:36:16.384Z,132.87
2022-10-06T00:38:44.417Z,134.47
2022-10-06T00:41:14.169Z,137.60
2022-10-06T00:43:48.654Z,132.43
2022-10-06T00:46:24.531Z,124.70
2022-10-06T00:48:58.138Z,137.60
2022-10-06T00:51:27.490Z,133.43
2022-10-06T00:53:55.716Z,128.37
2022-10-06T00:56:23.725Z,129.40
2022-10-06T00:58:53.223Z,137.47
2022-10-06T01:01:21.281Z,126.17
2022-10-06T01:03:54.696Z,113.60
2022-10-06T01:06:22.649Z,128.93
2022-10-06T01:08:50.988Z,124.43
2022-10-06T01:11:18.974Z,132.50
2022-10-06T01:13:48.464Z,120.97
2022-10-06T01:16:24.207Z,122.43
2022-10-06T01:18:55.225Z,122.43
2022-10-06T01:21:29.389Z,119.10
2022-10-06T01:23:58.753Z,108.40
2022-10-06T01:26:28.195Z,114.57
2022-10-06T01:28:56.658Z,111.80
2022-10-06T01:31:25.210Z,110.33
2022-10-06T01:33:53.961Z,114.37
2022-10-06T01:36:23.048Z,106.03
2022-10-06T01:38:51.018Z,115.30
2022-10-06T01:41:21.649Z,111.40
2022-10-06T01:43:49.814Z,119.93
2022-10-06T01:46:17.982Z,104.60
2022-10-06T01:48:46.042Z,106.80
2022-10-06T01:51:15.925Z,115.20
2022-10-06T01:53:44.108Z,114.07
2022-10-06T01:56:12.204Z,106.77
2022-10-06T01:58:41.530Z,104.07
2022-10-06T02:01:10.689Z,110.87
2022-10-06T02:03:40.536Z,115.90
2022-10-06T02:06:09.406Z,103.10
2022-10-06T02:08:37.669Z,106.73
2022-10-06T02:11:08.948Z,105.77
2022-10-06T02:13:37.446Z,97.50
2022-10-06T02:16:15.797Z,101.90
2022-10-06T02:18:43.899Z,104.80
2022-10-06T02:21:15.934Z,106.43
2022-10-06T02:23:44.105Z,98.77
2022-10-06T02:26:12.388Z,102.33
2022-10-06T02:28:40.478Z,95.03
2022-10-06T02:31:11.773Z,104.73
2022-10-06T02:33:41.126Z,99.23
2022-10-06T02:36:11.951Z,101.30
2022-10-06T02:38:39.991Z,100.57
2022-10-06T02:41:08.767Z,98.27
2022-10-06T02:43:37.315Z,103.83
2022-10-06T02:46:10.352Z,88.90
2022-10-06T02:48:39.670Z,90.20
2022-10-06T02:51:11.725Z,96.07
2022-10-06T02:53:40.661Z,94.13
2022-10-06T02:56:15.930Z,91.77
2022-10-06T02:58:44.955Z,83.87
2022-10-06T03:01:17.421Z,97.73
2022-10-06T03:03:46.628Z,92.30
2022-10-06T03:06:23.417Z,90.30
2022-10-06T03:08:53.067Z,92.07
2022-10-06T03:11:22.909Z,86.00
2022-10-06T03:13:52.452Z,92.53
2022-10-06T03:16:24.146Z,95.57
2022-10-06T03:18:54.584Z,87.30
2022-10-06T03:21:25.069Z,94.33
2022-10-06T03:23:54.514Z,94.87
2022-10-06T03:26:27.729Z,91.63
2022-10-06T03:28:56.071Z,88.90
2022-10-06T03:31:26.434Z,85.03
2022-10-06T03:33:56.481Z,88.23
2022-10-06T03:36:27.959Z,88.03
2022-10-06T03:38:56.083Z,82.40
2022-10-06T03:41:26.599Z,90.00
2022-10-06T03:43:56.639Z,84.10
2022-10-06T03:46:28.903Z,82.57
2022-10-06T03:48:58.272Z,85.80
2022-10-06T03:51:29.753Z,76.80
2022-10-06T03:53:58.737Z,79.10
2022-10-06T03:56:29.064Z,79.60
2022-10-06T03:58:59.548Z,80.37
2022-10-06T04:01:31.094Z,79.27
2022-10-06T04:04:00.996Z,77.03
2022-10-06T04:06:33.728Z,82.63
2022-10-06T04:09:01.860Z,75.00
2022-10-06T04:11:32.450Z,77.37
2022-10-06T04:14:03.338Z,78.40
2022-10-06T04:16:35.279Z,76.30
2022-10-06T04:19:06.246Z,76.43
2022-10-06T04:21:37.432Z,73.83
2022-10-06T04:24:07.419Z,73.67
2022-10-06T04:26:38.036Z,70.93
2022-10-06T04:29:06.484Z,72.00
2022-10-06T04:31:39.050Z,66.77
2022-10-06T04:34:08.195Z,78.73
2022-10-06T04:36:39.562Z,72.80
2022-10-06T04:39:10.156Z,62.97
2022-10-06T04:41:40.465Z,73.40
2022-10-06T04:44:09.046Z,70.77
2022-10-06T04:46:43.384Z,71.27
2022-10-06T04:49:19.014Z,66.87
2022-10-06T04:51:48.790Z,67.80
2022-10-06T04:54:17.045Z,72.83
2022-10-06T04:56:44.984Z,70.40
2022-10-06T04:59:12.953Z,76.00
2022-10-06T05:01:42.282Z,71.63
2022-10-06T05:04:10.288Z,69.70
2022-10-06T05:06:40.940Z,68.20
2022-10-06T05:09:11.802Z,64.77
2022-10-06T05:11:39.920Z,67.60
2022-10-06T05:14:08.522Z,67.40
2022-10-06T05:16:37.958Z,64.67
2022-10-06T05:19:08.124Z,67.07
2022-10-06T05:21:36.701Z,63.37
2022-10-06T05:24:05.049Z,65.30
2022-10-06T05:26:35.696Z,68.57
2022-10-06T05:29:04.108Z,66.37
2022-10-06T05:31:34.941Z,62.33
2022-10-06T05:34:02.977Z,68.00
2022-10-06T05:36:34.215Z,64.60
2022-10-06T05:39:03.696Z,67.73
2022-10-06T05:41:33.466Z,63.43
2022-10-06T05:44:03.127Z,74.43
2022-10-06T05:46:33.480Z,63.37
2022-10-06T05:49:04.068Z,58.57
2022-10-06T05:51:35.496Z,61.60
2022-10-06T05:54:04.242Z,71.47
2022-10-06T05:56:34.349Z,62.97
2022-10-06T05:59:03.078Z,61.83
2022-10-06T06:01:33.161Z,61.83
2022-10-06T06:04:03.530Z,59.80
2022-10-06T06:06:35.416Z,59.60
2022-10-06T06:09:07.745Z,60.77
2022-10-06T06:11:38.133Z,60.30
2022-10-06T06:14:09.001Z,55.30
2022-10-06T06:16:38.880Z,54.33
2022-10-06T06:19:09.018Z,42.90
2022-10-06T06:21:38.720Z,34.27
2022-10-06T06:24:08.079Z,31.47
2022-10-06T06:26:38.383Z,33.60
2022-10-06T06:29:06.917Z,18.80
2022-10-06T06:31:37.410Z,21.40
2022-10-06T06:34:07.376Z,22.57
2022-10-06T06:36:40.763Z,21.60
2022-10-06T06:39:11.315Z,14.80
2022-10-06T06:41:41.482Z,15.37
2022-10-06T06:44:11.461Z,11.60
2022-10-06T06:46:43.014Z,16.60
2022-10-06T06:49:12.151Z,10.80
2022-10-06T06:51:44.425Z,18.00
2022-10-06T06:54:12.897Z,11.63
2022-10-06T06:56:41.284Z,23.70
2022-10-06T06:59:11.874Z,13.90
2022-10-06T07:01:44.197Z,17.17
2022-10-06T07:04:14.513Z,20.70
2022-10-06T07:06:56.838Z,8.83
2022-10-06T07:09:25.896Z,11.47
2022-10-06T07:11:54.881Z,13.27
2022-10-06T07:14:24.161Z,12.80
2022-10-06T07:17:09.967Z,11.63
2022-10-06T07:19:52.170Z,21.20
2022-10-06T07:22:41.227Z,15.23
2022-10-06T07:25:21.571Z,14.90
2022-10-06T07:27:52.468Z,13.77
2022-10-06T07:30:23.771Z,12.00
2022-10-06T07:32:53.166Z,6.93
2022-10-06T07:35:23.024Z,12.17
2022-10-06T07:37:54.030Z,7.77
2022-10-06T07:40:22.002Z,10.03
2022-10-06T07:42:51.777Z,11.40
2022-10-06T07:45:41.994Z,9.40
2022-10-06T07:48:14.901Z,5.27
2022-10-06T07:50:45.559Z,8.50
2022-10-06T07:53:16.105Z,6.73
2022-10-06T07:55:46.577Z,14.17
2022-10-06T07:58:16.919Z,7.90
2022-10-06T08:00:46.460Z,5.57
2022-10-06T08:03:17.834Z,7.90
2022-10-06T08:05:46.276Z,6.70
2022-10-06T08:08:17.475Z,7.57
2022-10-06T08:10:53.135Z,7.83
2022-10-06T08:13:21.204Z,10.03
2022-10-06T08:15:51.196Z,6.30
2022-10-06T08:18:44.300Z,6.93
2022-10-06T08:21:14.661Z,8.30
2022-10-06T08:23:45.247Z,9.33
2022-10-06T08:26:14.641Z,4.80
2022-10-06T08:28:46.142Z,8.60
2022-10-06T08:31:15.771Z,7.10
2022-10-06T08:33:45.042Z,7.83
2022-10-06T08:36:16.592Z,7.20
2022-10-06T08:38:50.359Z,9.40
2022-10-06T08:41:24.943Z,11.93
2022-10-06T08:44:04.383Z,7.90
2022-10-06T08:46:38.316Z,10.33
2022-10-06T08:49:07.594Z,6.80
2022-10-06T08:51:53.879Z,10.23
2022-10-06T08:54:30.052Z,7.90
2022-10-06T08:57:06.761Z,10.77
2022-10-06T08:59:36.770Z,6.13
2022-10-06T09:02:16.024Z,10.10
2022-10-06T09:04:44.153Z,8.33
2022-10-06T09:07:16.246Z,4.40
2022-10-06T09:10:16.473Z,9.57
2022-10-06T09:12:49.020Z,7.40
2022-10-06T09:15:35.046Z,7.80
2022-10-06T09:18:10.513Z,8.43
2022-10-06T09:20:43.449Z,7.40
2022-10-06T09:23:17.565Z,7.90
2022-10-06T09:25:46.887Z,6.27
2022-10-06T09:28:17.147Z,6.83
2022-10-06T09:30:45.107Z,6.23
2022-10-06T09:33:24.730Z,4.63
2022-10-06T09:36:06.245Z,7.23
2022-10-06T09:38:55.237Z,6.87
2022-10-06T09:41:29.686Z,5.77
2022-10-06T09:43:59.662Z,13.23
2022-10-06T09:46:34.667Z,10.50
2022-10-06T09:49:18.280Z,9.53
2022-10-06T09:52:14.913Z,4.97
2022-10-06T09:54:44.778Z,7.27
2022-10-06T09:57:21.798Z,5.63
2022-10-06T09:59:50.726Z,5.37
2022-10-06T10:02:36.512Z,6.00
2022-10-06T10:05:08.150Z,4.00
2022-10-06T10:07:37.623Z,7.70
2022-10-06T10:10:21.797Z,6.87
2022-10-06T10:12:56.029Z,10.57
2022-10-06T10:15:32.984Z,11.40
2022-10-06T10:18:03.989Z,8.43
2022-10-06T10:20:36.482Z,7.50
2022-10-06T10:23:19.753Z,6.63
2022-10-06T10:26:01.956Z,5.17
2022-10-06T10:29:03.364Z,5.00
2022-10-06T10:31:42.374Z,3.60
2022-10-06T10:34:24.697Z,5.07
2022-10-06T10:36:59.725Z,9.67
2022-10-06T10:39:39.641Z,5.40
2022-10-06T10:42:15.380Z,6.27
2022-10-06T10:44:54.647Z,8.83
2022-10-06T10:47:27.380Z,7.00
2022-10-06T10:50:06.030Z,6.27
2022-10-06T10:52:42.005Z,5.60
2022-10-06T10:55:27.011Z,7.63
2022-10-06T10:57:58.428Z,10.23
2022-10-06T11:00:34.601Z,18.17
2022-10-06T11:03:03.084Z,10.03
2022-10-06T11:06:11.146Z,28.37
2022-10-06T11:08:46.251Z,47.83
2022-10-06T11:11:20.069Z,97.80
2022-10-06T11:13:52.484Z,86.23
2022-10-06T11:16:36.924Z,75.87
2022-10-06T11:19:24.224Z,49.13
2022-10-06T11:21:59.521Z,55.40
2022-10-06T11:24:39.121Z,40.67
2022-10-06T11:27:39.525Z,30.40
2022-10-06T11:30:14.885Z,33.00
2022-10-06T11:33:01.459Z,31.33
2022-10-06T11:35:36.064Z,27.33
2022-10-06T11:38:13.732Z,29.47
2022-10-06T11:41:00.375Z,22.13
2022-10-06T11:43:36.714Z,21.17
2022-10-06T11:46:21.101Z,19.63
2022-10-06T11:48:50.687Z,20.10
2022-10-06T11:51:36.606Z,17.13
2022-10-06T11:54:42.233Z,14.40
2022-10-06T11:57:34.486Z,15.47
2022-10-06T12:00:43.069Z,12.03
2022-10-06T12:03:51.156Z,9.83
2022-10-06T12:06:57.909Z,10.47
2022-10-06T12:09:51.924Z,12.00
2022-10-06T12:13:05.395Z,10.97
2022-10-06T12:17:08.522Z,9.97
2022-10-06T12:18:59.763Z,9.07
2022-10-06T12:21:46.018Z,16.27
2022-10-06T12:24:37.537Z,10.30
2022-10-06T12:27:39.532Z,9.70
2022-10-06T12:30:22.407Z,10.27
2022-10-06T12:32:54.958Z,10.40
2022-10-06T12:35:31.544Z,12.60
2022-10-06T12:38:04.558Z,11.73
2022-10-06T12:40:51.357Z,10.30
2022-10-06T12:43:57.936Z,15.50
2022-10-06T12:46:36.039Z,6.50
2022-10-06T12:49:26.727Z,11.50
2022-10-06T12:51:59.743Z,11.20
2022-10-06T12:54:35.960Z,6.70
2022-10-06T12:57:17.527Z,6.30
2022-10-06T12:59:46.257Z,7.80
2022-10-06T13:02:21.551Z,8.43
2022-10-06T13:04:56.606Z,5.90
2022-10-06T13:07:28.821Z,5.60
2022-10-06T13:10:18.682Z,6.50
2022-10-06T13:12:50.088Z,5.37
2022-10-06T13:15:24.938Z,6.87
2022-10-06T13:17:56.191Z,3.83
2022-10-06T13:20:39.194Z,6.90
2022-10-06T13:23:23.239Z,6.07
2022-10-06T13:25:58.658Z,5.40
2022-10-06T13:28:31.746Z,3.83
2022-10-06T13:33:40.718Z,4.37
2022-10-06T13:36:10.772Z,4.67
2022-10-06T13:38:41.630Z,6.37
2022-10-06T13:41:22.491Z,6.63
2022-10-06T13:43:54.926Z,4.53
2022-10-06T13:46:26.410Z,6.43
2022-10-06T13:48:59.529Z,4.43
2022-10-06T13:51:30.651Z,3.10
2022-10-06T13:54:02.505Z,6.57
2022-10-06T13:56:37.544Z,4.87
2022-10-06T13:59:34.494Z,3.30
2022-10-06T14:02:22.898Z,4.43
2022-10-06T14:05:30.426Z,6.00
2022-10-06T14:08:01.833Z,11.03
2022-10-06T14:10:37.629Z,5.10
2022-10-06T14:13:10.019Z,6.70
2022-10-06T14:15:47.721Z,9.93
2022-10-06T14:18:26.279Z,6.43
2022-10-06T14:20:57.050Z,7.77
2022-10-06T14:23:44.326Z,3.90
2022-10-06T14:26:15.301Z,5.77
2022-10-06T14:28:48.585Z,7.63
2022-10-06T14:31:17.044Z,3.47
2022-10-06T14:33:46.188Z,9.47
2022-10-06T14:36:20.361Z,5.97
2022-10-06T14:38:50.434Z,8.60
2022-10-06T14:41:24.540Z,6.30
2022-10-06T14:43:54.350Z,10.50
2022-10-06T14:46:23.075Z,11.53
2022-10-06T14:48:51.676Z,15.53
2022-10-06T14:51:20.176Z,12.03
2022-10-06T14:53:54.203Z,11.07
2022-10-06T14:56:26.697Z,9.50
2022-10-06T14:58:54.642Z,6.43
2022-10-06T15:01:26.804Z,6.43
2022-10-06T15:03:59.671Z,5.27
2022-10-06T15:06:45.854Z,6.60
2022-10-06T15:09:14.502Z,8.27
2022-10-06T15:11:43.799Z,7.27
2022-10-06T15:14:11.843Z,6.37
2022-10-06T15:16:42.182Z,3.20
2022-10-06T15:19:10.855Z,7.03
2022-10-06T15:21:40.673Z,4.67
2022-10-06T15:24:12.937Z,6.43
2022-10-06T15:27:00.509Z,3.90
2022-10-06T15:29:29.024Z,5.10
2022-10-06T15:31:58.604Z,6.73
2022-10-06T15:34:28.552Z,5.27
2022-10-06T15:36:58.787Z,3.40
2022-10-06T15:39:28.468Z,2.77
2022-10-06T15:41:58.638Z,3.67
2022-10-06T15:44:26.642Z,4.20
2022-10-06T15:46:55.771Z,8.40
2022-10-06T15:49:26.093Z,5.83
2022-10-06T15:51:56.511Z,6.43
2022-10-06T15:54:27.121Z,6.13
2022-10-06T15:56:59.078Z,2.70
2022-10-06T15:59:31.449Z,3.00
2022-10-06T16:02:03.503Z,6.50
2022-10-06T16:04:46.225Z,5.43
2022-10-06T16:07:16.439Z,3.10
2022-10-06T16:09:46.861Z,4.47
2022-10-06T16:12:21.241Z,7.13
2022-10-06T16:14:49.877Z,5.30
2022-10-06T16:17:18.612Z,3.67
2022-10-06T16:19:47.219Z,5.83
2022-10-06T16:22:17.260Z,5.73
2022-10-06T16:24:45.324Z,9.10
2022-10-06T16:27:15.892Z,5.93
2022-10-06T16:29:44.357Z,2.20
2022-10-06T16:32:12.427Z,2.20
2022-10-06T16:34:40.360Z,2.87
2022-10-06T16:37:08.292Z,7.50
2022-10-06T16:39:36.232Z,3.73
2022-10-06T16:42:04.676Z,11.57
2022-10-06T16:44:34.043Z,2.47
2022-10-06T16:47:02.063Z,3.80
2022-10-06T16:49:30.111Z,4.90
2022-10-06T16:51:58.065Z,6.73
2022-10-06T16:54:27.047Z,4.47
2022-10-06T16:56:55.267Z,4.27
2022-10-06T16:59:25.839Z,12.15
2022-10-06T17:01:55.164Z,8.80
2022-10-06T17:04:24.787Z,7.73
2022-10-06T17:06:54.757Z,5.50
2022-10-06T17:09:25.099Z,4.70
2022-10-06T17:11:55.323Z,17.40
2022-10-06T17:14:24.424Z,6.43
2022-10-06T17:16:55.966Z,5.50
2022-10-06T17:19:26.692Z,6.93
2022-10-06T17:21:58.957Z,7.30
2022-10-06T17:24:29.184Z,6.43
2022-10-06T17:26:58.220Z,8.63
2022-10-06T17:29:27.124Z,8.80
2022-10-06T17:31:58.777Z,7.82
2022-10-06T17:34:32.307Z,13.53
2022-10-06T17:37:02.411Z,7.33
2022-10-06T17:39:30.881Z,12.17
2022-10-06T17:41:58.874Z,8.37
2022-10-06T17:44:28.435Z,11.27
2022-10-06T17:47:00.259Z,8.67
2022-10-06T17:49:30.269Z,8.37
2022-10-06T17:51:58.332Z,8.17
2022-10-06T17:54:28.249Z,10.77
2022-10-06T17:56:58.945Z,16.33
2022-10-06T17:59:30.452Z,13.73
2022-10-06T18:02:03.519Z,11.17
2022-10-06T18:04:33.657Z,10.77
2022-10-06T18:07:03.097Z,10.13
2022-10-06T18:09:31.031Z,16.40
2022-10-06T18:11:59.945Z,12.70
2022-10-06T18:14:32.143Z,12.20
2022-10-06T18:17:03.922Z,12.77
2022-10-06T18:19:34.157Z,9.73
2022-10-06T18:22:04.749Z,7.83
2022-10-06T18:24:33.144Z,9.00
2022-10-06T18:27:02.244Z,8.47
2022-10-06T18:29:32.912Z,7.53
2022-10-06T18:37:39.501Z,12.83
2022-10-06T18:40:09.908Z,12.83
2022-10-06T18:42:38.815Z,9.50
2022-10-06T18:45:26.815Z,11.90
2022-10-06T18:48:14.072Z,20.50
2022-10-06T18:50:42.512Z,14.07
2022-10-06T18:53:10.582Z,10.40
2022-10-06T18:55:38.551Z,13.33
2022-10-06T18:58:06.546Z,8.33
2022-10-06T19:00:34.693Z,13.73
2022-10-06T19:03:04.182Z,9.97
2022-10-06T19:05:32.421Z,9.23
2022-10-06T19:08:01.634Z,11.80
2022-10-06T19:10:29.878Z,9.40
2022-10-06T19:12:58.208Z,15.73
2022-10-06T19:15:26.584Z,10.53
2022-10-06T19:17:54.567Z,10.00
2022-10-06T19:20:24.008Z,10.70
2022-10-06T19:22:51.950Z,10.77
2022-10-06T19:25:21.681Z,8.70
2022-10-06T19:27:51.016Z,10.83
2022-10-06T19:30:19.065Z,11.60
2022-10-06T19:32:47.006Z,9.87
2022-10-06T19:35:16.129Z,10.40
2022-10-06T19:37:45.950Z,4.57
2022-10-06T19:40:14.110Z,7.20
2022-10-06T19:42:47.161Z,4.40
2022-10-06T19:45:15.901Z,7.13
2022-10-06T19:47:44.969Z,8.37
2022-10-06T19:50:13.724Z,8.63
2022-10-06T19:52:42.848Z,20.33
2022-10-06T19:55:12.151Z,7.67
2022-10-06T19:57:40.289Z,6.13
2022-10-06T20:00:11.102Z,9.57
2022-10-06T20:02:42.471Z,7.70
2022-10-06T20:05:12.270Z,5.80
2022-10-06T20:07:40.610Z,6.60
2022-10-06T20:10:09.670Z,6.10
2022-10-06T20:12:41.245Z,6.60
2022-10-06T20:15:10.934Z,8.20
2022-10-06T20:17:41.487Z,7.33
2022-10-06T20:20:10.355Z,13.10
2022-10-06T20:22:38.297Z,5.93
2022-10-06T20:25:07.211Z,5.77
2022-10-06T20:27:35.253Z,4.87
2022-10-06T20:30:05.468Z,5.53
2022-10-06T20:32:33.466Z,8.93
2022-10-06T20:35:01.850Z,4.47
2022-10-06T20:37:29.796Z,3.60
2022-10-06T20:40:15.732Z,4.40
2022-10-06T20:42:48.458Z,3.57
2022-10-06T20:45:18.121Z,7.13
2022-10-06T20:47:47.701Z,5.53
2022-10-06T20:50:15.958Z,5.70
2022-10-06T20:52:43.924Z,6.17
2022-10-06T20:55:11.902Z,6.73
2022-10-06T20:57:39.903Z,8.80
2022-10-06T21:00:10.095Z,5.93
2022-10-06T21:02:40.454Z,3.43
2022-10-06T21:05:09.921Z,4.03
2022-10-06T21:07:37.901Z,6.50
2022-10-06T21:10:07.232Z,4.87
2022-10-06T21:12:35.244Z,3.47
2022-10-06T21:15:03.664Z,6.93
2022-10-06T21:17:31.646Z,6.40
2022-10-06T21:20:00.921Z,3.67
2022-10-06T21:22:31.329Z,5.30
2022-10-06T21:24:59.258Z,6.27
2022-10-06T21:27:27.242Z,11.00
2022-10-06T21:29:55.280Z,8.13
2022-10-06T21:32:23.227Z,10.13
2022-10-06T21:34:55.770Z,7.13
2022-10-06T21:37:25.105Z,5.20
2022-10-06T21:39:53.048Z,6.10
2022-10-06T21:42:20.997Z,7.20
2022-10-06T21:44:48.947Z,6.10
2022-10-06T21:47:16.960Z,7.43
2022-10-06T21:49:45.087Z,6.27
2022-10-06T21:52:13.335Z,5.87
2022-10-06T21:54:42.642Z,4.83
2022-10-06T21:57:10.572Z,15.47
2022-10-06T21:59:38.503Z,7.20
2022-10-06T22:02:06.531Z,13.10
2022-10-06T22:04:34.562Z,5.80
2022-10-06T22:07:02.513Z,5.33
2022-10-06T22:09:30.463Z,7.33
2022-10-06T22:11:59.825Z,9.27
2022-10-06T22:14:27.994Z,13.13
2022-10-06T22:16:55.934Z,6.97
2022-10-06T22:19:23.872Z,7.73
2022-10-06T22:21:52.142Z,11.63
2022-10-06T22:24:22.085Z,5.63
2022-10-06T22:26:50.701Z,14.47
2022-10-06T22:29:21.037Z,10.67
2022-10-06T22:31:49.777Z,5.60
2022-10-06T22:34:20.690Z,6.80
2022-10-06T22:36:48.726Z,5.17
2022-10-06T22:39:17.356Z,10.13
2022-10-06T22:41:45.419Z,7.93
2022-10-06T22:44:13.393Z,5.13
2022-10-06T22:46:42.760Z,7.83
2022-10-06T22:49:10.991Z,5.20
2022-10-06T22:51:39.130Z,7.30
2022-10-06T22:54:07.211Z,8.20
2022-10-06T22:56:35.716Z,10.07
2022-10-06T22:59:04.008Z,5.30
2022-10-06T23:01:32.069Z,8.30
2022-10-06T23:04:01.573Z,6.67
2022-10-06T23:06:31.043Z,3.10
2022-10-06T23:08:59.555Z,12.03
2022-10-06T23:11:28.290Z,5.03
2022-10-06T23:13:56.263Z,5.93
2022-10-06T23:16:24.484Z,8.73
2022-10-06T23:18:52.535Z,4.97
2022-10-06T23:21:27.087Z,4.30
2022-10-06T23:23:56.996Z,4.40
2022-10-06T23:26:25.884Z,4.87
2022-10-06T23:28:56.478Z,6.80
2022-10-06T23:31:25.311Z,4.57
2022-10-06T23:33:54.362Z,6.40
2022-10-06T23:36:23.921Z,8.93
2022-10-06T23:38:52.038Z,2.93
2022-10-06T23:41:21.118Z,8.43
2022-10-06T23:43:49.605Z,6.20
2022-10-06T23:46:17.613Z,5.60
2022-10-06T23:48:45.699Z,4.23
2022-10-06T23:51:16.359Z,8.20
2022-10-06T23:53:45.755Z,5.40
2022-10-06T23:56:14.440Z,7.27
2022-10-06T23:58:42.753Z,5.37
